»·PEaware :: SKY74 KORS-KEAT

SKY74 :: KORS-KEAT

FLIGHT INFORMATION

Flight Status: Arrived
Operator:
Sky High Charters
More flights by this operator :: More flights under this callsign
Pilot: Charles C. (26995)
Aircraft: MCDONNELL-DOUGLAS SKYTRAIN C-47
(DC3)
More flights by this aircraft type
Origin: KORS Orcas Island
United States
Destination: KEAT Pangborn Meml
United States
More flights between these airports :: More routes between these airports
Route: +FEGBA2 FEGBA SEA V2 ELH V25 EAT
File this flight plan on PilotEdge
Remarks:
Altitude:
(Current/Filed)
9,000ft
Speed:
(Current/Filed)
150kts
Departed: 23-Aug-20 09:50 AM
Arrived: 23-Aug-20 11:08 AM
Distance/Time
Traveled:
134nm/1:18
Distance/Time
To Go:
Arrived

Flight Plot

Page will automatically refresh every two minutes.

Flight plan parsing failed; only flown route is shown


Map Options




Map Legend


Flown Route
Filed Route
Departure Airport
Arrival Airport
Navaid (VOR, NDB)
Fix

Horizontal Profiles

Position Reports

Time Latitude Longitude Heading Altitude Ground
Speed
23-Aug-20 09:42 48.707556 -122.909538 187 32ft 0kts
23-Aug-20 09:44 48.707556 -122.909538 187 32ft 0kts
23-Aug-20 09:45 48.707556 -122.909538 187 32ft 0kts
23-Aug-20 09:46 48.707556 -122.909538 187 32ft 0kts
23-Aug-20 09:47 48.707556 -122.909538 187 32ft 0kts
23-Aug-20 09:48 48.710119 -122.909975 359 18ft 16kts
23-Aug-20 09:49 48.712188 -122.910224 279 17ft 6kts
23-Aug-20 09:50 48.702211 -122.910324 168 177ft 99kts
23-Aug-20 09:51 48.672624 -122.907943 174 921ft 114kts
23-Aug-20 09:52 48.642337 -122.907940 183 1757ft 104kts
23-Aug-20 09:53 48.611971 -122.909974 182 2532ft 112kts
23-Aug-20 09:54 48.580577 -122.911192 181 3267ft 112kts
23-Aug-20 09:55 48.549375 -122.912279 181 3966ft 112kts
23-Aug-20 09:56 48.518734 -122.906615 158 4651ft 112kts
23-Aug-20 09:57 48.488089 -122.889640 158 5291ft 119kts
23-Aug-20 09:58 48.457038 -122.872234 158 5964ft 118kts
23-Aug-20 09:59 48.425863 -122.854778 158 6666ft 120kts
23-Aug-20 10:00 48.414622 -122.848454 160 6888ft 124kts
23-Aug-20 10:01 48.381851 -122.830178 159 7565ft 126kts
23-Aug-20 10:02 48.348661 -122.811653 159 8263ft 128kts
23-Aug-20 10:02 48.320725 -122.796077 159 8840ft 130kts
23-Aug-20 10:04 48.276213 -122.771303 159 8970ft 175kts
23-Aug-20 10:04 48.237969 -122.750176 160 8976ft 174kts
23-Aug-20 10:05 48.192849 -122.726195 160 8977ft 170kts
23-Aug-20 10:07 48.141127 -122.697819 159 8977ft 169kts
23-Aug-20 10:07 48.104539 -122.677634 159 8977ft 169kts
23-Aug-20 10:08 48.060385 -122.653294 159 8977ft 169kts
23-Aug-20 10:09 48.016157 -122.628955 159 8980ft 171kts
23-Aug-20 10:10 47.970909 -122.604102 159 8987ft 173kts
23-Aug-20 10:11 47.940777 -122.587577 159 8987ft 174kts
23-Aug-20 10:12 47.898214 -122.564267 159 8987ft 175kts
23-Aug-20 10:13 47.852391 -122.539221 159 8985ft 174kts
23-Aug-20 10:14 47.806824 -122.514357 159 8985ft 174kts
23-Aug-20 10:15 47.761102 -122.489457 159 8985ft 174kts
23-Aug-20 10:16 47.715546 -122.464694 159 8985ft 174kts
23-Aug-20 10:17 47.670380 -122.440186 159 8986ft 174kts
23-Aug-20 10:18 47.624606 -122.415397 159 8986ft 174kts
23-Aug-20 10:19 47.579018 -122.390754 159 8986ft 174kts
23-Aug-20 10:20 47.533718 -122.363405 158 8986ft 174kts
23-Aug-20 10:21 47.488420 -122.338374 160 8985ft 174kts
23-Aug-20 10:22 47.443172 -122.313916 158 8984ft 174kts
23-Aug-20 10:23 47.423208 -122.251647 106 8986ft 171kts
23-Aug-20 10:24 47.408690 -122.184440 105 8986ft 172kts
23-Aug-20 10:25 47.394205 -122.117003 105 8986ft 172kts
23-Aug-20 10:26 47.379738 -122.049779 105 8986ft 172kts
23-Aug-20 10:27 47.365584 -121.984211 105 8986ft 172kts
23-Aug-20 10:28 47.351409 -121.918749 105 8986ft 172kts
23-Aug-20 10:29 47.336704 -121.851065 105 8986ft 172kts
23-Aug-20 10:30 47.322072 -121.783923 105 8986ft 172kts
23-Aug-20 10:31 47.307379 -121.716722 105 8986ft 172kts
23-Aug-20 10:32 47.292636 -121.649509 105 8986ft 172kts
23-Aug-20 10:33 47.277834 -121.582237 105 8986ft 172kts
23-Aug-20 10:34 47.262978 -121.514973 105 8986ft 172kts
23-Aug-20 10:35 47.248212 -121.448279 105 8987ft 172kts
23-Aug-20 10:36 47.233429 -121.381764 105 8986ft 172kts
23-Aug-20 10:37 47.218872 -121.316468 106 8986ft 172kts
23-Aug-20 10:38 47.203842 -121.249266 106 8983ft 172kts
23-Aug-20 10:39 47.188814 -121.182280 106 8988ft 172kts
23-Aug-20 10:40 47.173752 -121.115350 106 8987ft 174kts
23-Aug-20 10:41 47.158377 -121.047234 106 8986ft 176kts
23-Aug-20 10:42 47.142880 -120.978803 106 8985ft 177kts
23-Aug-20 10:43 47.127280 -120.910162 106 8986ft 177kts
23-Aug-20 10:44 47.111697 -120.841773 106 8986ft 177kts
23-Aug-20 10:45 47.096057 -120.773039 106 8984ft 177kts
23-Aug-20 10:46 47.080617 -120.704402 106 8987ft 177kts
23-Aug-20 10:47 47.064808 -120.635441 106 8987ft 177kts
23-Aug-20 10:48 47.048913 -120.566511 106 8987ft 177kts
23-Aug-20 10:49 47.033084 -120.498072 106 8986ft 177kts
23-Aug-20 10:50 47.030345 -120.429778 104 8979ft 176kts
23-Aug-20 10:51 47.022667 -120.361367 87 8988ft 174kts
23-Aug-20 10:52 47.031384 -120.296538 39 8993ft 167kts
23-Aug-20 10:53 47.066172 -120.251066 39 8986ft 168kts
23-Aug-20 10:54 47.101111 -120.205317 39 8986ft 168kts
23-Aug-20 10:55 47.135773 -120.157497 51 8507ft 185kts
23-Aug-20 10:56 47.149758 -120.081608 55 7222ft 190kts
23-Aug-20 10:57 47.182298 -120.045285 359 7511ft 139kts
23-Aug-20 10:58 47.221992 -120.045713 357 6451ft 154kts
23-Aug-20 10:59 47.266528 -120.046871 356 4029ft 154kts
23-Aug-20 11:00 47.293656 -120.065293 336 3388ft 89kts
23-Aug-20 11:01 47.314835 -120.080548 332 3192ft 80kts
23-Aug-20 11:02 47.334839 -120.095633 332 3113ft 80kts
23-Aug-20 11:03 47.354688 -120.111691 322 2826ft 87kts
23-Aug-20 11:04 47.364970 -120.146800 264 2031ft 95kts
23-Aug-20 11:05 47.373987 -120.177961 341 1868ft 83kts
23-Aug-20 11:06 47.391649 -120.196681 317 1324ft 78kts
23-Aug-20 11:07 47.400446 -120.209050 1 1257ft 19kts
23-Aug-20 11:08 47.401392 -120.207137 281 1257ft 0kts
23-Aug-20 11:09 47.401392 -120.207137 281 1257ft 0kts
23-Aug-20 11:10 47.401392 -120.207137 281 1257ft 0kts
23-Aug-20 11:11 47.401392 -120.207137 281 1257ft 0kts

Navigation Log

Ident Type
Flight plan parsing failed, navigation log unavailable